Kennedale's Hourly Summary for Tuesday, March 14, 2017
Hour Temp
(f)
RH
(%)
Solar Rad.
(MJ/m2)
Rainfall
(in)
Wind
(mph)
3/14/2017 12:00 AM 45 44 0 0 4.1
3/14/2017 1:00 AM 43 48 0 0 3.24
3/14/2017 2:00 AM 42 53 0 0 2.69
3/14/2017 3:00 AM 39 62 0 0 1.51
3/14/2017 4:00 AM 37 73 0 0 1.23
3/14/2017 5:00 AM 35 77 0 0 0.95
3/14/2017 6:00 AM 35 80 0 0 0.95
3/14/2017 7:00 AM 34 83 0.01 0 1.01
3/14/2017 8:00 AM 38 73 0.25 0 1.12
3/14/2017 9:00 AM 43 58 0.41 0 4.59
3/14/2017 10:00 AM 46 51 0.58 0 5.81
3/14/2017 11:00 AM 49 46 2.15 0 5.37
3/14/2017 12:00 PM 52 43 2.55 0 4.47
3/14/2017 1:00 PM 55 39 2.75 0 4.98
3/14/2017 2:00 PM 58 38 2.65 0 4.7
3/14/2017 3:00 PM 60 36 2.31 0 6.65
3/14/2017 4:00 PM 63 33 1.86 0 5.99
3/14/2017 5:00 PM 64 33 1.4 0 5.54
3/14/2017 6:00 PM 63 35 0.72 0 5.2
3/14/2017 7:00 PM 61 40 0.12 0 4.19
3/14/2017 8:00 PM 58 44 0 0 2.8
3/14/2017 9:00 PM 56 48 0 0 3.08
3/14/2017 10:00 PM 55 51 0 0 3.41
3/14/2017 11:00 PM 53 52 0 0 3.02
Data Summary 49 51 17.76 0.00 3.61